sensor_id;sensor_type;location;lat;lon;timestamp;temperature;humidity
17178;DHT22;8704;52.006;4.374;2023-12-04T00:00:53;1.50;1.00
17178;DHT22;8704;52.006;4.374;2023-12-04T00:03:21;1.70;1.00
17178;DHT22;8704;52.006;4.374;2023-12-04T00:05:51;1.60;1.00
17178;DHT22;8704;52.006;4.374;2023-12-04T00:08:19;2.10;1.00
17178;DHT22;8704;52.006;4.374;2023-12-04T00:10:47;2.40;1.00
17178;DHT22;8704;52.006;4.374;2023-12-04T00:13:15;1.60;1.00
17178;DHT22;8704;52.006;4.374;2023-12-04T00:15:44;1.60;1.00
17178;DHT22;8704;52.006;4.374;2023-12-04T00:18:12;1.90;1.00
17178;DHT22;8704;52.006;4.374;2023-12-04T00:20:40;1.60;1.00
17178;DHT22;8704;52.006;4.374;2023-12-04T00:23:10;1.60;1.00
17178;DHT22;8704;52.006;4.374;2023-12-04T00:25:38;1.60;1.00
17178;DHT22;8704;52.006;4.374;2023-12-04T00:28:06;1.60;1.00
17178;DHT22;8704;52.006;4.374;2023-12-04T00:30:34;1.60;1.00
17178;DHT22;8704;52.006;4.374;2023-12-04T00:33:02;1.60;1.00
17178;DHT22;8704;52.006;4.374;2023-12-04T00:35:30;1.60;1.00
17178;DHT22;8704;52.006;4.374;2023-12-04T00:37:58;2.60;1.00
17178;DHT22;8704;52.006;4.374;2023-12-04T00:40:28;1.60;1.00
17178;DHT22;8704;52.006;4.374;2023-12-04T00:42:56;1.60;1.00
17178;DHT22;8704;52.006;4.374;2023-12-04T00:45:25;1.50;1.00
17178;DHT22;8704;52.006;4.374;2023-12-04T00:47:53;2.00;1.00
17178;DHT22;8704;52.006;4.374;2023-12-04T00:50:21;1.60;1.00
17178;DHT22;8704;52.006;4.374;2023-12-04T00:52:49;2.00;1.00
17178;DHT22;8704;52.006;4.374;2023-12-04T00:55:17;1.60;1.00
17178;DHT22;8704;52.006;4.374;2023-12-04T00:57:45;1.60;1.00
17178;DHT22;8704;52.006;4.374;2023-12-04T01:00:14;1.50;1.00
17178;DHT22;8704;52.006;4.374;2023-12-04T01:02:43;1.50;1.00
17178;DHT22;8704;52.006;4.374;2023-12-04T01:05:11;1.50;1.00
17178;DHT22;8704;52.006;4.374;2023-12-04T01:07:39;1.50;1.00
17178;DHT22;8704;52.006;4.374;2023-12-04T01:10:07;1.50;1.00
17178;DHT22;8704;52.006;4.374;2023-12-04T01:12:36;1.50;1.00
17178;DHT22;8704;52.006;4.374;2023-12-04T01:15:06;1.50;1.00
17178;DHT22;8704;52.006;4.374;2023-12-04T01:17:35;1.50;1.00
17178;DHT22;8704;52.006;4.374;2023-12-04T01:20:04;1.60;1.00
17178;DHT22;8704;52.006;4.374;2023-12-04T01:22:32;1.50;1.00
17178;DHT22;8704;52.006;4.374;2023-12-04T01:25:00;1.50;1.00
17178;DHT22;8704;52.006;4.374;2023-12-04T01:27:30;1.50;1.00
17178;DHT22;8704;52.006;4.374;2023-12-04T01:29:58;1.50;1.00
17178;DHT22;8704;52.006;4.374;2023-12-04T01:32:27;1.50;1.00
17178;DHT22;8704;52.006;4.374;2023-12-04T01:34:55;1.50;1.00
17178;DHT22;8704;52.006;4.374;2023-12-04T01:37:23;1.50;99.90
17178;DHT22;8704;52.006;4.374;2023-12-04T01:39:51;1.60;99.90
17178;DHT22;8704;52.006;4.374;2023-12-04T01:42:19;1.60;99.90
17178;DHT22;8704;52.006;4.374;2023-12-04T01:44:47;1.50;99.90
17178;DHT22;8704;52.006;4.374;2023-12-04T01:47:16;1.70;99.90
17178;DHT22;8704;52.006;4.374;2023-12-04T01:49:46;1.60;99.90
17178;DHT22;8704;52.006;4.374;2023-12-04T01:52:15;2.20;99.90
17178;DHT22;8704;52.006;4.374;2023-12-04T01:54:44;1.70;99.90
17178;DHT22;8704;52.006;4.374;2023-12-04T01:57:12;1.70;99.90
17178;DHT22;8704;52.006;4.374;2023-12-04T01:59:40;1.60;99.90
17178;DHT22;8704;52.006;4.374;2023-12-04T02:02:10;1.60;99.90
17178;DHT22;8704;52.006;4.374;2023-12-04T02:04:38;1.60;99.90
17178;DHT22;8704;52.006;4.374;2023-12-04T02:07:07;2.20;99.90
17178;DHT22;8704;52.006;4.374;2023-12-04T02:09:37;1.60;10.70
17178;DHT22;8704;52.006;4.374;2023-12-04T02:12:06;1.60;1.00
17178;DHT22;8704;52.006;4.374;2023-12-04T02:14:34;1.60;1.00
17178;DHT22;8704;52.006;4.374;2023-12-04T02:17:05;2.20;1.00
17178;DHT22;8704;52.006;4.374;2023-12-04T02:19:33;1.60;1.00
17178;DHT22;8704;52.006;4.374;2023-12-04T02:22:02;1.60;1.00
17178;DHT22;8704;52.006;4.374;2023-12-04T02:24:31;1.60;1.00
17178;DHT22;8704;52.006;4.374;2023-12-04T02:27:07;1.40;1.00
17178;DHT22;8704;52.006;4.374;2023-12-04T02:29:41;1.60;1.00
17178;DHT22;8704;52.006;4.374;2023-12-04T02:32:14;1.90;99.90
17178;DHT22;8704;52.006;4.374;2023-12-04T02:34:44;1.70;1.00
17178;DHT22;8704;52.006;4.374;2023-12-04T02:37:14;2.20;1.00
17178;DHT22;8704;52.006;4.374;2023-12-04T02:39:44;1.60;1.00
17178;DHT22;8704;52.006;4.374;2023-12-04T02:42:12;1.70;1.00
17178;DHT22;8704;52.006;4.374;2023-12-04T02:44:41;2.10;99.90
17178;DHT22;8704;52.006;4.374;2023-12-04T02:47:09;1.70;11.90
17178;DHT22;8704;52.006;4.374;2023-12-04T02:49:37;1.80;1.00
17178;DHT22;8704;52.006;4.374;2023-12-04T02:52:05;1.70;68.20
17178;DHT22;8704;52.006;4.374;2023-12-04T02:54:33;2.00;99.90
17178;DHT22;8704;52.006;4.374;2023-12-04T02:57:03;1.70;99.90
17178;DHT22;8704;52.006;4.374;2023-12-04T02:59:31;1.70;99.90
17178;DHT22;8704;52.006;4.374;2023-12-04T03:02:00;1.70;1.00
17178;DHT22;8704;52.006;4.374;2023-12-04T03:04:28;1.70;99.90
17178;DHT22;8704;52.006;4.374;2023-12-04T03:06:57;1.90;1.00
17178;DHT22;8704;52.006;4.374;2023-12-04T03:09:25;1.90;99.90
17178;DHT22;8704;52.006;4.374;2023-12-04T03:12:14;1.70;1.00
17178;DHT22;8704;52.006;4.374;2023-12-04T03:14:42;1.70;99.90
17178;DHT22;8704;52.006;4.374;2023-12-04T03:17:11;1.70;1.00
17178;DHT22;8704;52.006;4.374;2023-12-04T03:19:39;0.80;1.00
17178;DHT22;8704;52.006;4.374;2023-12-04T03:22:07;1.70;1.00
17178;DHT22;8704;52.006;4.374;2023-12-04T03:24:35;3.00;1.00
17178;DHT22;8704;52.006;4.374;2023-12-04T03:27:04;1.80;1.00
17178;DHT22;8704;52.006;4.374;2023-12-04T03:29:33;1.70;99.90
17178;DHT22;8704;52.006;4.374;2023-12-04T03:32:01;1.70;1.00
17178;DHT22;8704;52.006;4.374;2023-12-04T03:34:29;1.90;99.90
17178;DHT22;8704;52.006;4.374;2023-12-04T03:36:57;1.70;99.90
17178;DHT22;8704;52.006;4.374;2023-12-04T03:39:26;1.70;99.90
17178;DHT22;8704;52.006;4.374;2023-12-04T03:41:54;1.70;1.00
17178;DHT22;8704;52.006;4.374;2023-12-04T03:44:23;1.70;1.00
17178;DHT22;8704;52.006;4.374;2023-12-04T03:46:52;1.70;99.90
17178;DHT22;8704;52.006;4.374;2023-12-04T03:49:20;1.70;99.90
17178;DHT22;8704;52.006;4.374;2023-12-04T03:51:49;1.70;99.90
17178;DHT22;8704;52.006;4.374;2023-12-04T03:54:17;1.70;17.00
17178;DHT22;8704;52.006;4.374;2023-12-04T03:56:45;1.70;99.90
17178;DHT22;8704;52.006;4.374;2023-12-04T03:59:13;1.70;1.00
17178;DHT22;8704;52.006;4.374;2023-12-04T04:01:41;1.70;1.00
17178;DHT22;8704;52.006;4.374;2023-12-04T04:04:10;1.70;1.00
17178;DHT22;8704;52.006;4.374;2023-12-04T04:06:38;1.70;99.90
17178;DHT22;8704;52.006;4.374;2023-12-04T04:09:06;1.70;57.20
17178;DHT22;8704;52.006;4.374;2023-12-04T04:11:35;2.70;1.00
17178;DHT22;8704;52.006;4.374;2023-12-04T04:14:03;2.10;99.90
17178;DHT22;8704;52.006;4.374;2023-12-04T04:16:31;1.80;99.90
17178;DHT22;8704;52.006;4.374;2023-12-04T04:18:59;1.80;1.00
17178;DHT22;8704;52.006;4.374;2023-12-04T04:21:29;1.70;99.90
17178;DHT22;8704;52.006;4.374;2023-12-04T04:23:57;1.80;1.00
17178;DHT22;8704;52.006;4.374;2023-12-04T04:26:25;1.80;1.00
17178;DHT22;8704;52.006;4.374;2023-12-04T04:28:53;1.80;41.70
17178;DHT22;8704;52.006;4.374;2023-12-04T04:31:21;1.80;1.00
17178;DHT22;8704;52.006;4.374;2023-12-04T04:33:49;1.80;99.90
17178;DHT22;8704;52.006;4.374;2023-12-04T04:36:17;1.80;99.90
17178;DHT22;8704;52.006;4.374;2023-12-04T04:38:47;2.50;1.00
17178;DHT22;8704;52.006;4.374;2023-12-04T04:41:15;1.80;1.00
17178;DHT22;8704;52.006;4.374;2023-12-04T04:43:43;2.40;1.00
17178;DHT22;8704;52.006;4.374;2023-12-04T04:46:11;1.80;1.00
17178;DHT22;8704;52.006;4.374;2023-12-04T04:48:39;1.80;99.90
17178;DHT22;8704;52.006;4.374;2023-12-04T04:51:08;1.80;99.90
17178;DHT22;8704;52.006;4.374;2023-12-04T04:53:36;1.90;92.70
17178;DHT22;8704;52.006;4.374;2023-12-04T04:56:07;1.90;90.30
17178;DHT22;8704;52.006;4.374;2023-12-04T04:58:36;1.90;1.00
17178;DHT22;8704;52.006;4.374;2023-12-04T05:01:04;1.90;1.00
17178;DHT22;8704;52.006;4.374;2023-12-04T05:03:32;1.90;99.90
17178;DHT22;8704;52.006;4.374;2023-12-04T05:06:01;2.00;99.90
17178;DHT22;8704;52.006;4.374;2023-12-04T05:08:29;1.90;1.00
17178;DHT22;8704;52.006;4.374;2023-12-04T05:10:57;1.90;1.00
17178;DHT22;8704;52.006;4.374;2023-12-04T05:13:26;2.00;1.00
17178;DHT22;8704;52.006;4.374;2023-12-04T05:15:54;2.00;99.90
17178;DHT22;8704;52.006;4.374;2023-12-04T05:18:22;2.00;1.00
17178;DHT22;8704;52.006;4.374;2023-12-04T05:20:51;1.90;99.90
17178;DHT22;8704;52.006;4.374;2023-12-04T05:23:19;1.90;99.90
17178;DHT22;8704;52.006;4.374;2023-12-04T05:25:47;2.70;1.00
17178;DHT22;8704;52.006;4.374;2023-12-04T05:28:16;2.00;99.90
17178;DHT22;8704;52.006;4.374;2023-12-04T05:30:46;2.60;1.00
17178;DHT22;8704;52.006;4.374;2023-12-04T05:33:15;2.00;1.00
17178;DHT22;8704;52.006;4.374;2023-12-04T05:35:43;2.00;99.90
17178;DHT22;8704;52.006;4.374;2023-12-04T05:38:11;2.00;99.90
17178;DHT22;8704;52.006;4.374;2023-12-04T05:40:39;2.10;1.00
17178;DHT22;8704;52.006;4.374;2023-12-04T05:43:07;2.00;1.00
17178;DHT22;8704;52.006;4.374;2023-12-04T05:45:35;2.00;99.90
17178;DHT22;8704;52.006;4.374;2023-12-04T05:48:05;2.00;1.00
17178;DHT22;8704;52.006;4.374;2023-12-04T05:50:33;2.50;1.00
17178;DHT22;8704;52.006;4.374;2023-12-04T05:53:01;2.00;1.00
17178;DHT22;8704;52.006;4.374;2023-12-04T05:55:29;2.50;1.00
17178;DHT22;8704;52.006;4.374;2023-12-04T05:57:57;2.10;1.00
17178;DHT22;8704;52.006;4.374;2023-12-04T06:00:26;2.10;99.90
17178;DHT22;8704;52.006;4.374;2023-12-04T06:02:55;2.10;1.00
17178;DHT22;8704;52.006;4.374;2023-12-04T06:05:25;2.10;99.90
17178;DHT22;8704;52.006;4.374;2023-12-04T06:07:53;2.10;99.90
17178;DHT22;8704;52.006;4.374;2023-12-04T06:10:21;3.00;1.00
17178;DHT22;8704;52.006;4.374;2023-12-04T06:12:49;2.60;1.00
17178;DHT22;8704;52.006;4.374;2023-12-04T06:15:17;2.20;1.00
17178;DHT22;8704;52.006;4.374;2023-12-04T06:17:45;2.20;1.00
17178;DHT22;8704;52.006;4.374;2023-12-04T06:20:13;2.30;1.00
17178;DHT22;8704;52.006;4.374;2023-12-04T06:22:43;2.20;1.00
17178;DHT22;8704;52.006;4.374;2023-12-04T06:25:13;2.20;25.60
17178;DHT22;8704;52.006;4.374;2023-12-04T06:27:42;2.20;1.00
17178;DHT22;8704;52.006;4.374;2023-12-04T06:30:11;2.10;99.90
17178;DHT22;8704;52.006;4.374;2023-12-04T06:32:39;2.10;99.90
17178;DHT22;8704;52.006;4.374;2023-12-04T06:35:09;2.10;99.90
17178;DHT22;8704;52.006;4.374;2023-12-04T06:37:38;2.10;1.00
17178;DHT22;8704;52.006;4.374;2023-12-04T06:40:09;2.20;1.00
17178;DHT22;8704;52.006;4.374;2023-12-04T06:42:39;2.20;1.00
17178;DHT22;8704;52.006;4.374;2023-12-04T06:45:08;2.20;1.00
17178;DHT22;8704;52.006;4.374;2023-12-04T06:47:37;2.20;1.00
17178;DHT22;8704;52.006;4.374;2023-12-04T06:50:07;2.20;1.00
17178;DHT22;8704;52.006;4.374;2023-12-04T06:52:35;2.20;1.00
17178;DHT22;8704;52.006;4.374;2023-12-04T06:55:04;2.20;1.00
17178;DHT22;8704;52.006;4.374;2023-12-04T06:57:34;2.20;99.90
17178;DHT22;8704;52.006;4.374;2023-12-04T07:00:03;2.20;99.90
17178;DHT22;8704;52.006;4.374;2023-12-04T07:02:48;2.20;99.90
17178;DHT22;8704;52.006;4.374;2023-12-04T07:05:16;2.20;99.90
17178;DHT22;8704;52.006;4.374;2023-12-04T07:07:45;2.30;99.90
17178;DHT22;8704;52.006;4.374;2023-12-04T07:10:13;2.30;99.90
17178;DHT22;8704;52.006;4.374;2023-12-04T07:12:44;2.30;99.90
17178;DHT22;8704;52.006;4.374;2023-12-04T07:15:12;2.40;99.90
17178;DHT22;8704;52.006;4.374;2023-12-04T07:17:40;2.80;99.90
17178;DHT22;8704;52.006;4.374;2023-12-04T07:20:09;3.00;99.90
17178;DHT22;8704;52.006;4.374;2023-12-04T07:22:38;2.40;18.60
17178;DHT22;8704;52.006;4.374;2023-12-04T07:25:07;2.40;99.90
17178;DHT22;8704;52.006;4.374;2023-12-04T07:27:36;2.40;99.90
17178;DHT22;8704;52.006;4.374;2023-12-04T07:30:07;3.20;99.90
17178;DHT22;8704;52.006;4.374;2023-12-04T07:32:35;2.40;99.90
17178;DHT22;8704;52.006;4.374;2023-12-04T07:35:03;3.20;99.90
17178;DHT22;8704;52.006;4.374;2023-12-04T07:37:32;2.40;18.60
17178;DHT22;8704;52.006;4.374;2023-12-04T07:40:00;2.40;99.90
17178;DHT22;8704;52.006;4.374;2023-12-04T07:42:28;2.40;27.40
17178;DHT22;8704;52.006;4.374;2023-12-04T07:44:56;2.40;1.00
17178;DHT22;8704;52.006;4.374;2023-12-04T07:47:25;2.90;2.90
17178;DHT22;8704;52.006;4.374;2023-12-04T07:49:53;2.50;1.00
17178;DHT22;8704;52.006;4.374;2023-12-04T07:52:21;2.50;1.00
17178;DHT22;8704;52.006;4.374;2023-12-04T07:54:50;3.40;1.00
17178;DHT22;8704;52.006;4.374;2023-12-04T07:57:19;2.50;1.00
17178;DHT22;8704;52.006;4.374;2023-12-04T07:59:47;2.50;1.00
17178;DHT22;8704;52.006;4.374;2023-12-04T08:02:18;2.70;1.00
17178;DHT22;8704;52.006;4.374;2023-12-04T08:04:47;2.90;1.00
17178;DHT22;8704;52.006;4.374;2023-12-04T08:07:15;2.90;1.00
17178;DHT22;8704;52.006;4.374;2023-12-04T08:09:43;2.50;1.00
17178;DHT22;8704;52.006;4.374;2023-12-04T08:12:11;2.60;1.00
17178;DHT22;8704;52.006;4.374;2023-12-04T08:14:39;3.30;1.00
17178;DHT22;8704;52.006;4.374;2023-12-04T08:17:07;3.20;99.90
17178;DHT22;8704;52.006;4.374;2023-12-04T08:19:35;2.60;99.90
17178;DHT22;8704;52.006;4.374;2023-12-04T08:22:06;2.60;1.00
17178;DHT22;8704;52.006;4.374;2023-12-04T08:24:34;2.60;1.00
17178;DHT22;8704;52.006;4.374;2023-12-04T08:27:02;2.70;1.00
17178;DHT22;8704;52.006;4.374;2023-12-04T08:29:30;2.70;99.90
17178;DHT22;8704;52.006;4.374;2023-12-04T08:31:58;3.20;99.90
17178;DHT22;8704;52.006;4.374;2023-12-04T08:34:26;2.70;99.90
17178;DHT22;8704;52.006;4.374;2023-12-04T08:36:54;2.70;99.90
17178;DHT22;8704;52.006;4.374;2023-12-04T08:39:23;3.30;99.90
17178;DHT22;8704;52.006;4.374;2023-12-04T08:41:51;2.70;1.00
17178;DHT22;8704;52.006;4.374;2023-12-04T08:44:29;3.60;99.90
17178;DHT22;8704;52.006;4.374;2023-12-04T08:46:57;2.70;1.00
17178;DHT22;8704;52.006;4.374;2023-12-04T08:49:26;3.20;99.90
17178;DHT22;8704;52.006;4.374;2023-12-04T08:52:08;2.70;1.00
17178;DHT22;8704;52.006;4.374;2023-12-04T08:54:40;2.70;99.90
17178;DHT22;8704;52.006;4.374;2023-12-04T08:57:08;3.00;99.90
17178;DHT22;8704;52.006;4.374;2023-12-04T08:59:37;2.80;99.90
17178;DHT22;8704;52.006;4.374;2023-12-04T09:02:05;2.80;99.90
17178;DHT22;8704;52.006;4.374;2023-12-04T09:04:34;2.80;1.00
17178;DHT22;8704;52.006;4.374;2023-12-04T09:07:04;2.80;99.90
17178;DHT22;8704;52.006;4.374;2023-12-04T09:09:35;3.20;99.90
17178;DHT22;8704;52.006;4.374;2023-12-04T09:12:06;2.80;99.90
17178;DHT22;8704;52.006;4.374;2023-12-04T09:14:34;2.80;99.90
17178;DHT22;8704;52.006;4.374;2023-12-04T09:17:03;3.30;1.00
17178;DHT22;8704;52.006;4.374;2023-12-04T09:19:31;2.80;99.90
17178;DHT22;8704;52.006;4.374;2023-12-04T09:21:59;2.90;99.90
17178;DHT22;8704;52.006;4.374;2023-12-04T09:24:42;2.90;99.90
17178;DHT22;8704;52.006;4.374;2023-12-04T09:27:12;2.90;1.00
17178;DHT22;8704;52.006;4.374;2023-12-04T09:29:41;3.10;99.90
17178;DHT22;8704;52.006;4.374;2023-12-04T09:32:09;2.90;99.90
17178;DHT22;8704;52.006;4.374;2023-12-04T09:34:37;3.60;99.90
17178;DHT22;8704;52.006;4.374;2023-12-04T09:37:05;2.90;99.90
17178;DHT22;8704;52.006;4.374;2023-12-04T09:39:37;3.50;99.90
17178;DHT22;8704;52.006;4.374;2023-12-04T09:42:07;2.90;99.90
17178;DHT22;8704;52.006;4.374;2023-12-04T09:44:38;3.50;99.90
17178;DHT22;8704;52.006;4.374;2023-12-04T09:47:08;3.00;99.90
17178;DHT22;8704;52.006;4.374;2023-12-04T09:49:37;3.00;99.90
17178;DHT22;8704;52.006;4.374;2023-12-04T09:52:06;3.50;99.90
17178;DHT22;8704;52.006;4.374;2023-12-04T09:54:36;3.00;99.90
17178;DHT22;8704;52.006;4.374;2023-12-04T09:57:05;3.00;99.90
17178;DHT22;8704;52.006;4.374;2023-12-04T09:59:33;3.00;99.90
17178;DHT22;8704;52.006;4.374;2023-12-04T10:02:04;3.70;99.90
17178;DHT22;8704;52.006;4.374;2023-12-04T10:04:33;3.00;99.90
17178;DHT22;8704;52.006;4.374;2023-12-04T10:07:01;3.00;99.90
17178;DHT22;8704;52.006;4.374;2023-12-04T10:09:30;3.10;99.90
17178;DHT22;8704;52.006;4.374;2023-12-04T10:11:58;3.10;99.90
17178;DHT22;8704;52.006;4.374;2023-12-04T10:14:27;3.10;99.90
17178;DHT22;8704;52.006;4.374;2023-12-04T10:16:55;3.60;99.90
17178;DHT22;8704;52.006;4.374;2023-12-04T10:19:25;3.30;99.90
17178;DHT22;8704;52.006;4.374;2023-12-04T10:21:55;3.20;99.90
17178;DHT22;8704;52.006;4.374;2023-12-04T10:24:31;3.20;99.90
17178;DHT22;8704;52.006;4.374;2023-12-04T10:27:00;3.20;99.90
17178;DHT22;8704;52.006;4.374;2023-12-04T10:29:40;3.50;99.90
17178;DHT22;8704;52.006;4.374;2023-12-04T10:32:10;4.20;99.90
17178;DHT22;8704;52.006;4.374;2023-12-04T10:34:41;3.40;99.90
17178;DHT22;8704;52.006;4.374;2023-12-04T10:37:10;3.50;99.90
17178;DHT22;8704;52.006;4.374;2023-12-04T10:39:46;3.50;1.00
17178;DHT22;8704;52.006;4.374;2023-12-04T10:42:24;3.60;99.90
17178;DHT22;8704;52.006;4.374;2023-12-04T10:44:55;3.60;92.80
17178;DHT22;8704;52.006;4.374;2023-12-04T10:47:23;3.70;32.00
17178;DHT22;8704;52.006;4.374;2023-12-04T10:49:53;3.90;1.00
17178;DHT22;8704;52.006;4.374;2023-12-04T10:52:22;3.80;97.20
17178;DHT22;8704;52.006;4.374;2023-12-04T10:54:51;3.80;1.00
17178;DHT22;8704;52.006;4.374;2023-12-04T10:57:22;3.90;74.80
17178;DHT22;8704;52.006;4.374;2023-12-04T10:59:56;4.00;1.00
17178;DHT22;8704;52.006;4.374;2023-12-04T11:02:26;4.00;99.90
17178;DHT22;8704;52.006;4.374;2023-12-04T11:05:01;3.80;1.00
17178;DHT22;8704;52.006;4.374;2023-12-04T11:07:31;3.90;1.00
17178;DHT22;8704;52.006;4.374;2023-12-04T11:10:21;3.90;1.00
17178;DHT22;8704;52.006;4.374;2023-12-04T11:12:57;3.90;1.00
17178;DHT22;8704;52.006;4.374;2023-12-04T11:15:28;3.90;1.00
17178;DHT22;8704;52.006;4.374;2023-12-04T11:17:59;4.10;1.00
17178;DHT22;8704;52.006;4.374;2023-12-04T11:20:31;4.00;34.40
17178;DHT22;8704;52.006;4.374;2023-12-04T11:23:04;4.00;1.00
17178;DHT22;8704;52.006;4.374;2023-12-04T11:25:33;4.10;29.50
17178;DHT22;8704;52.006;4.374;2023-12-04T11:28:04;4.00;99.90
17178;DHT22;8704;52.006;4.374;2023-12-04T11:30:32;4.00;99.70
17178;DHT22;8704;52.006;4.374;2023-12-04T11:33:01;4.00;99.90
17178;DHT22;8704;52.006;4.374;2023-12-04T11:35:32;4.00;99.90
17178;DHT22;8704;52.006;4.374;2023-12-04T11:38:01;4.00;99.90
17178;DHT22;8704;52.006;4.374;2023-12-04T11:40:29;4.00;99.90
17178;DHT22;8704;52.006;4.374;2023-12-04T11:42:57;4.00;99.90
17178;DHT22;8704;52.006;4.374;2023-12-04T11:45:25;4.00;99.90
17178;DHT22;8704;52.006;4.374;2023-12-04T11:47:55;4.00;1.00
17178;DHT22;8704;52.006;4.374;2023-12-04T11:50:24;4.00;1.00
17178;DHT22;8704;52.006;4.374;2023-12-04T11:52:54;4.00;1.00
17178;DHT22;8704;52.006;4.374;2023-12-04T11:55:25;3.90;99.90
17178;DHT22;8704;52.006;4.374;2023-12-04T11:57:55;3.90;1.00
17178;DHT22;8704;52.006;4.374;2023-12-04T12:00:24;3.90;1.00
17178;DHT22;8704;52.006;4.374;2023-12-04T12:03:02;3.90;1.00
17178;DHT22;8704;52.006;4.374;2023-12-04T12:05:49;4.10;1.00
17178;DHT22;8704;52.006;4.374;2023-12-04T12:08:23;3.90;1.00
17178;DHT22;8704;52.006;4.374;2023-12-04T12:10:51;3.90;1.00
17178;DHT22;8704;52.006;4.374;2023-12-04T12:13:20;4.00;1.00
17178;DHT22;8704;52.006;4.374;2023-12-04T12:15:51;4.00;1.00
17178;DHT22;8704;52.006;4.374;2023-12-04T12:18:21;4.00;1.00
17178;DHT22;8704;52.006;4.374;2023-12-04T12:20:50;4.00;1.00
17178;DHT22;8704;52.006;4.374;2023-12-04T12:23:18;4.10;1.00
17178;DHT22;8704;52.006;4.374;2023-12-04T12:25:48;4.00;1.00
17178;DHT22;8704;52.006;4.374;2023-12-04T12:28:17;4.00;1.00
17178;DHT22;8704;52.006;4.374;2023-12-04T12:30:45;4.00;23.90
17178;DHT22;8704;52.006;4.374;2023-12-04T12:33:14;4.50;99.90
17178;DHT22;8704;52.006;4.374;2023-12-04T12:35:43;4.00;12.40
17178;DHT22;8704;52.006;4.374;2023-12-04T12:38:26;4.00;90.00
17178;DHT22;8704;52.006;4.374;2023-12-04T12:40:55;4.00;99.90
17178;DHT22;8704;52.006;4.374;2023-12-04T12:43:24;4.60;99.90
17178;DHT22;8704;52.006;4.374;2023-12-04T12:45:55;4.00;99.90
17178;DHT22;8704;52.006;4.374;2023-12-04T12:48:23;4.10;99.90
17178;DHT22;8704;52.006;4.374;2023-12-04T12:50:51;4.10;99.90
17178;DHT22;8704;52.006;4.374;2023-12-04T12:53:19;4.10;99.90
17178;DHT22;8704;52.006;4.374;2023-12-04T12:55:48;4.10;99.90
17178;DHT22;8704;52.006;4.374;2023-12-04T12:58:17;4.10;99.90
17178;DHT22;8704;52.006;4.374;2023-12-04T13:00:47;4.10;99.90
17178;DHT22;8704;52.006;4.374;2023-12-04T13:03:16;4.10;99.90
17178;DHT22;8704;52.006;4.374;2023-12-04T13:05:45;4.10;1.00
17178;DHT22;8704;52.006;4.374;2023-12-04T13:08:14;4.10;1.00
17178;DHT22;8704;52.006;4.374;2023-12-04T13:10:42;4.00;1.00
17178;DHT22;8704;52.006;4.374;2023-12-04T13:13:11;4.00;1.00
17178;DHT22;8704;52.006;4.374;2023-12-04T13:15:41;4.00;96.40
17178;DHT22;8704;52.006;4.374;2023-12-04T13:18:09;4.00;81.10
17178;DHT22;8704;52.006;4.374;2023-12-04T13:20:37;4.00;99.90
17178;DHT22;8704;52.006;4.374;2023-12-04T13:23:05;4.60;99.90
17178;DHT22;8704;52.006;4.374;2023-12-04T13:25:36;4.00;65.90
17178;DHT22;8704;52.006;4.374;2023-12-04T13:28:05;3.90;99.90
17178;DHT22;8704;52.006;4.374;2023-12-04T13:30:37;3.90;99.90
17178;DHT22;8704;52.006;4.374;2023-12-04T13:33:07;3.90;99.90
17178;DHT22;8704;52.006;4.374;2023-12-04T13:35:35;3.80;1.00
17178;DHT22;8704;52.006;4.374;2023-12-04T13:38:03;3.80;1.00
17178;DHT22;8704;52.006;4.374;2023-12-04T13:40:42;3.80;1.00
17178;DHT22;8704;52.006;4.374;2023-12-04T13:43:26;3.80;1.00
17178;DHT22;8704;52.006;4.374;2023-12-04T13:46:11;3.80;1.00
17178;DHT22;8704;52.006;4.374;2023-12-04T13:48:41;3.80;88.30
17178;DHT22;8704;52.006;4.374;2023-12-04T13:51:10;3.80;1.00
17178;DHT22;8704;52.006;4.374;2023-12-04T13:53:40;3.90;1.00
17178;DHT22;8704;52.006;4.374;2023-12-04T13:56:11;3.70;1.00
17178;DHT22;8704;52.006;4.374;2023-12-04T13:58:52;3.70;1.00
17178;DHT22;8704;52.006;4.374;2023-12-04T14:01:24;4.40;1.00
17178;DHT22;8704;52.006;4.374;2023-12-04T14:03:57;4.30;1.00
17178;DHT22;8704;52.006;4.374;2023-12-04T14:06:29;3.60;1.00
17178;DHT22;8704;52.006;4.374;2023-12-04T14:08:58;3.60;99.90
17178;DHT22;8704;52.006;4.374;2023-12-04T14:11:27;3.80;99.90
17178;DHT22;8704;52.006;4.374;2023-12-04T14:13:55;3.60;99.90
17178;DHT22;8704;52.006;4.374;2023-12-04T14:16:23;3.60;99.90
17178;DHT22;8704;52.006;4.374;2023-12-04T14:18:51;3.50;1.00
17178;DHT22;8704;52.006;4.374;2023-12-04T14:21:21;3.50;48.50
17178;DHT22;8704;52.006;4.374;2023-12-04T14:23:49;4.40;1.00
17178;DHT22;8704;52.006;4.374;2023-12-04T14:26:17;4.10;1.00
17178;DHT22;8704;52.006;4.374;2023-12-04T14:28:45;4.80;1.00
17178;DHT22;8704;52.006;4.374;2023-12-04T14:31:13;3.50;1.00
17178;DHT22;8704;52.006;4.374;2023-12-04T14:33:41;3.40;99.90
17178;DHT22;8704;52.006;4.374;2023-12-04T14:36:10;3.40;99.90
17178;DHT22;8704;52.006;4.374;2023-12-04T14:38:41;3.40;99.90
17178;DHT22;8704;52.006;4.374;2023-12-04T14:41:09;3.40;1.00
17178;DHT22;8704;52.006;4.374;2023-12-04T14:43:38;4.50;99.90
17178;DHT22;8704;52.006;4.374;2023-12-04T14:46:06;3.30;1.00
17178;DHT22;8704;52.006;4.374;2023-12-04T14:48:37;3.30;99.90
17178;DHT22;8704;52.006;4.374;2023-12-04T14:51:07;3.30;99.90
17178;DHT22;8704;52.006;4.374;2023-12-04T14:53:37;3.30;1.00
17178;DHT22;8704;52.006;4.374;2023-12-04T14:56:18;3.20;1.00
17178;DHT22;8704;52.006;4.374;2023-12-04T14:58:54;3.20;1.00
17178;DHT22;8704;52.006;4.374;2023-12-04T15:01:46;3.20;99.90
17178;DHT22;8704;52.006;4.374;2023-12-04T15:04:28;3.20;1.00
17178;DHT22;8704;52.006;4.374;2023-12-04T15:07:16;3.10;1.00
17178;DHT22;8704;52.006;4.374;2023-12-04T15:10:02;3.90;1.00
17178;DHT22;8704;52.006;4.374;2023-12-04T15:13:07;3.00;99.90
17178;DHT22;8704;52.006;4.374;2023-12-04T15:16:01;3.10;99.90
17178;DHT22;8704;52.006;4.374;2023-12-04T15:18:54;3.00;1.00
17178;DHT22;8704;52.006;4.374;2023-12-04T15:21:48;3.00;1.00
17178;DHT22;8704;52.006;4.374;2023-12-04T15:24:15;3.00;1.00
17178;DHT22;8704;52.006;4.374;2023-12-04T15:26:44;4.10;1.00
17178;DHT22;8704;52.006;4.374;2023-12-04T15:29:12;3.00;1.00
17178;DHT22;8704;52.006;4.374;2023-12-04T15:31:41;2.90;1.00
17178;DHT22;8704;52.006;4.374;2023-12-04T15:34:08;2.90;77.10
17178;DHT22;8704;52.006;4.374;2023-12-04T15:36:39;2.90;99.90
17178;DHT22;8704;52.006;4.374;2023-12-04T15:39:07;2.80;99.90
17178;DHT22;8704;52.006;4.374;2023-12-04T15:41:36;2.90;99.90
17178;DHT22;8704;52.006;4.374;2023-12-04T15:44:04;2.80;1.00
17178;DHT22;8704;52.006;4.374;2023-12-04T15:46:32;2.90;1.00
17178;DHT22;8704;52.006;4.374;2023-12-04T15:49:01;2.80;1.00
17178;DHT22;8704;52.006;4.374;2023-12-04T15:51:28;2.80;1.00
17178;DHT22;8704;52.006;4.374;2023-12-04T15:53:56;3.40;1.00
17178;DHT22;8704;52.006;4.374;2023-12-04T15:56:23;2.80;1.00
17178;DHT22;8704;52.006;4.374;2023-12-04T15:58:51;2.80;1.00
17178;DHT22;8704;52.006;4.374;2023-12-04T16:01:18;2.80;1.00
17178;DHT22;8704;52.006;4.374;2023-12-04T16:03:47;3.50;1.00
17178;DHT22;8704;52.006;4.374;2023-12-04T16:06:16;2.90;1.00
17178;DHT22;8704;52.006;4.374;2023-12-04T16:08:44;2.80;1.00
17178;DHT22;8704;52.006;4.374;2023-12-04T16:11:12;2.80;1.00
17178;DHT22;8704;52.006;4.374;2023-12-04T16:13:40;2.80;1.00
17178;DHT22;8704;52.006;4.374;2023-12-04T16:16:09;2.80;12.70
17178;DHT22;8704;52.006;4.374;2023-12-04T16:18:37;2.80;68.40
17178;DHT22;8704;52.006;4.374;2023-12-04T16:21:07;2.80;99.90
17178;DHT22;8704;52.006;4.374;2023-12-04T16:23:35;2.80;99.90
17178;DHT22;8704;52.006;4.374;2023-12-04T16:26:06;2.80;99.90